Temp: 13.8°C   Baro: 994.7mb
  Wind: 6.0mph   Dir: SW (216°)
  Rain: 0.5mm (0.0mm/hr)
  Solar: 42W/m2  Hum: 88%
 
Bath Spa Weather Station Historical Data
Daily Summary for October 18, 2020 Units:  English    Metric   Both
Daily Weekly Monthly Yearly Custom
  High: Low: Average:
Temperature: 53.1 °F 38.3 °F 47.2 °F
Dew Point: 47.4 °F 36.9 °F 43.9 °F
Humidity: 93% 73% 86%
Wind Speed: 2.7mph 0mph 0.2mph
Wind Gust: 5mph - -
Wind- - SSW
Pressure: 30.27 in 30.16 in -
Precipitation: 0.00 in    
Historical Graphs
 
 
Tabular Data for October 18, 2020
Time Temperature Dew Point Pressure Wind Wind Speed Wind Gust Humidity Rainfall Rate (Hourly) solar
00:04 48.6 °F 45.1 °F 30.24 in Calm     85% 0.00 in 0 W/m2
00:09 48.5 °F 45.1 °F 30.24 in Calm     85% 0.00 in 0 W/m2
00:14 48.4 °F 45 °F 30.23 in Calm     85% 0.00 in 0 W/m2
00:19 48.5 °F 45.1 °F 30.23 in Calm     85% 0.00 in 0 W/m2
00:24 48.4 °F 45 °F 30.23 in Calm     85% 0.00 in 0 W/m2
00:29 48.4 °F 45 °F 30.23 in South 0.2 mph 2 mph 85% 0.00 in 0 W/m2
00:34 48.4 °F 45 °F 30.23 in South 0.2 mph 2 mph 85% 0.00 in 0 W/m2
00:39 48.4 °F 45 °F 30.23 in Calm     85% 0.00 in 0 W/m2
00:44 48.4 °F 45 °F 30.23 in Calm     85% 0.00 in 0 W/m2
00:49 48.4 °F 45 °F 30.23 in South 1.8 mph 3 mph 85% 0.00 in 0 W/m2
00:54 48.3 °F 45 °F 30.23 in Calm   2 mph 85.4% 0.00 in 0 W/m2
00:59 48.1 °F 44.8 °F 30.23 in South 1.1 mph 3 mph 85.4% 0.00 in 0 W/m2
01:04 48 °F 44.9 °F 30.23 in South 0.8 mph 3 mph 85.8% 0.00 in 0 W/m2
01:09 48 °F 45 °F 30.23 in South 1.8 mph 3 mph 86% 0.00 in 0 W/m2
01:13 48 °F 45 °F 30.23 in SSE 1.5 mph 3 mph 86% 0.00 in 0 W/m2
01:19 47.9 °F 44.9 °F 30.23 in SE 1.4 mph 4 mph 86% 0.00 in 0 W/m2
01:24 47.8 °F 44.8 °F 30.23 in ESE 0.6 mph 3 mph 86% 0.00 in 0 W/m2
01:29 47.8 °F 44.8 °F 30.23 in East 0.2 mph 1 mph 86% 0.00 in 0 W/m2
01:34 47.8 °F 44.8 °F 30.23 in Calm   1 mph 86% 0.00 in 0 W/m2
01:39 47.7 °F 44.7 °F 30.23 in Calm     86% 0.00 in 0 W/m2
01:44 47.7 °F 44.6 °F 30.23 in East 0.6 mph 3 mph 86% 0.00 in 0 W/m2
01:49 47.7 °F 44.2 °F 30.23 in Calm   3 mph 85% 0.00 in 0 W/m2
01:54 47.5 °F 44.1 °F 30.23 in Calm     85% 0.00 in 0 W/m2
01:59 47.5 °F 44.1 °F 30.23 in Calm     85% 0.00 in 0 W/m2
02:04 47.4 °F 44 °F 30.23 in Calm   3 mph 85% 0.00 in 0 W/m2
02:09 47.2 °F 43.8 °F 30.23 in Calm   2 mph 85% 0.00 in 0 W/m2
02:14 47.1 °F 43.6 °F 30.23 in Calm   1 mph 84.8% 0.00 in 0 W/m2
02:19 46.9 °F 43.2 °F 30.23 in ESE 0.4 mph 2 mph 84% 0.00 in 0 W/m2
02:24 46.7 °F 42.9 °F 30.23 in ESE 2 mph 3 mph 84% 0.00 in 0 W/m2
02:29 46.2 °F 42.7 °F 30.22 in ESE 0.2 mph 2 mph 84.3% 0.00 in 0 W/m2
02:34 46 °F 42.5 °F 30.23 in SSW 2.6 mph 4 mph 84.6% 0.00 in 0 W/m2
02:39 45.8 °F 42.4 °F 30.23 in West 1.7 mph 3 mph 85% 0.00 in 0 W/m2
02:44 45.9 °F 42.5 °F 30.23 in West 0.9 mph 4 mph 85.2% 0.00 in 0 W/m2
02:49 45.9 °F 42.8 °F 30.23 in Calm   1 mph 86% 0.00 in 0 W/m2
02:54 45.5 °F 42.5 °F 30.23 in Calm     86% 0.00 in 0 W/m2
02:59 45.1 °F 42.1 °F 30.23 in Calm     86% 0.00 in 0 W/m2
03:04 44.7 °F 41.6 °F 30.23 in West 0.2 mph 2 mph 86% 0.00 in 0 W/m2
03:09 44.4 °F 41.5 °F 30.23 in West 1.6 mph 3 mph 86.4% 0.00 in 0 W/m2
03:14 44.2 °F 41.5 °F 30.23 in Calm   2 mph 87% 0.00 in 0 W/m2
03:19 44 °F 41.3 °F 30.23 in West 0.4 mph 2 mph 87% 0.00 in 0 W/m2
03:23 43.9 °F 41.2 °F 30.23 in Calm     87% 0.00 in 0 W/m2
03:29 43.6 °F 41.1 °F 30.23 in Calm     87.8% 0.00 in 0 W/m2
03:34 43.3 °F 41 °F 30.23 in Calm   2 mph 88% 0.00 in 0 W/m2
03:39 43.2 °F 40.8 °F 30.23 in Calm   2 mph 88% 0.00 in 0 W/m2
03:44 43 °F 40.6 °F 30.23 in Calm     88% 0.00 in 0 W/m2
03:49 42.7 °F 40.4 °F 30.23 in Calm     88% 0.00 in 0 W/m2
03:54 42.5 °F 40.2 °F 30.23 in Calm     88% 0.00 in 0 W/m2
03:59 42.4 °F 40.1 °F 30.23 in Calm     88.2% 0.00 in 0 W/m2
04:04 42.2 °F 40 °F 30.24 in Calm     89% 0.00 in 0 W/m2
04:08 42.1 °F 39.9 °F 30.23 in Calm     89% 0.00 in 0 W/m2
04:14 41.7 °F 39.6 °F 30.24 in Calm     89% 0.00 in 0 W/m2
04:19 41.5 °F 39.4 °F 30.24 in Calm     89% 0.00 in 0 W/m2
04:24 41.5 °F 39.4 °F 30.24 in Calm     89% 0.00 in 0 W/m2
04:29 41.4 °F 39.2 °F 30.24 in Calm     89% 0.00 in 0 W/m2
04:34 41.1 °F 38.9 °F 30.24 in Calm     89% 0.00 in 0 W/m2
04:39 40.9 °F 38.7 °F 30.24 in West 1.2 mph 3 mph 89% 0.00 in 0 W/m2
04:44 40.8 °F 38.7 °F 30.24 in Calm     89% 0.00 in 0 W/m2
04:49 40.6 °F 38.6 °F 30.24 in Calm     89.2% 0.00 in 0 W/m2
04:54 40.6 °F 38.8 °F 30.24 in Calm     90% 0.00 in 0 W/m2
04:59 40.5 °F 38.7 °F 30.24 in Calm     90% 0.00 in 0 W/m2
05:04 40.4 °F 38.6 °F 30.24 in Calm     90% 0.00 in 0 W/m2
05:09 40.3 °F 38.5 °F 30.23 in Calm     90% 0.00 in 0 W/m2
05:14 40.3 °F 38.5 °F 30.23 in Calm     90% 0.00 in 0 W/m2
05:19 40.2 °F 38.4 °F 30.23 in Calm     90% 0.00 in 0 W/m2
05:24 40.1 °F 38.3 °F 30.23 in Calm     90% 0.00 in 0 W/m2
05:29 39.9 °F 38.1 °F 30.23 in Calm     90% 0.00 in 0 W/m2
05:34 39.7 °F 37.9 °F 30.23 in Calm     90% 0.00 in 0 W/m2
05:39 39.8 °F 38 °F 30.23 in Calm     90% 0.00 in 0 W/m2
05:44 39.7 °F 37.9 °F 30.23 in Calm     90% 0.00 in 0 W/m2
05:49 39.7 °F 37.9 °F 30.23 in Calm   1 mph 90% 0.00 in 0 W/m2
05:54 39.7 °F 37.9 °F 30.23 in Calm     90% 0.00 in 0 W/m2
05:59 39.7 °F 37.9 °F 30.23 in Calm     90% 0.00 in 0 W/m2
06:04 39.7 °F 37.9 °F 30.23 in Calm     90.2% 0.00 in 0 W/m2
06:09 39.6 °F 38 °F 30.23 in Calm     90.6% 0.00 in 0 W/m2
06:14 39.6 °F 38.1 °F 30.23 in Calm     91% 0.00 in 0 W/m2
06:19 39.5 °F 38 °F 30.23 in Calm     91% 0.00 in 0 W/m2
06:24 39.4 °F 37.9 °F 30.23 in Calm     91% 0.00 in 0 W/m2
06:29 39.4 °F 37.9 °F 30.23 in Calm     91% 0.00 in 0 W/m2
06:34 39.3 °F 37.8 °F 30.24 in Calm     91% 0.00 in 0 W/m2
06:39 39.2 °F 37.8 °F 30.24 in Calm     91% 0.00 in 0 W/m2
06:44 39 °F 37.6 °F 30.24 in Calm     91% 0.00 in 0 W/m2
06:49 38.8 °F 37.4 °F 30.24 in Calm     91% 0.00 in 0 W/m2
06:54 38.8 °F 37.4 °F 30.24 in Calm     91% 0.00 in 0 W/m2
06:59 38.8 °F 37.4 °F 30.24 in Calm     91% 0.00 in 0 W/m2
07:04 38.7 °F 37.3 °F 30.24 in Calm     91% 0.00 in 0 W/m2
07:09 38.7 °F 37.2 °F 30.24 in Calm     91% 0.00 in 0 W/m2
07:14 38.5 °F 37 °F 30.24 in Calm     91% 0.00 in 0 W/m2
07:19 38.5 °F 37 °F 30.25 in Calm     91% 0.00 in 0 W/m2
07:24 38.3 °F 36.9 °F 30.25 in Calm     91% 0.00 in 0 W/m2
07:29 38.3 °F 36.9 °F 30.25 in Calm     91% 0.00 in 0 W/m2
07:34 38.5 °F 37 °F 30.25 in Calm     91% 0.00 in 0 W/m2
07:39 38.7 °F 37.2 °F 30.25 in Calm     91.4% 0.00 in 0 W/m2
07:44 38.8 °F 37.4 °F 30.26 in Calm     91% 0.00 in 0 W/m2
07:49 38.7 °F 37.4 °F 30.26 in Calm     91.6% 0.00 in 5 W/m2
07:54 38.7 °F 37.4 °F 30.26 in Calm     92% 0.00 in 9 W/m2
07:59 38.9 °F 37.7 °F 30.26 in Calm     91.8% 0.00 in 9 W/m2
08:04 39.3 °F 38 °F 30.26 in Calm     92% 0.00 in 9 W/m2
08:09 39.7 °F 38.4 °F 30.27 in Calm     92% 0.00 in 11 W/m2
08:14 40.2 °F 38.9 °F 30.27 in Calm     92% 0.00 in 11 W/m2
08:19 40.3 °F 39 °F 30.26 in Calm     92% 0.00 in 16 W/m2
08:24 40.3 °F 39 °F 30.26 in West 0.4 mph 2 mph 92% 0.00 in 21 W/m2
08:29 40.3 °F 39 °F 30.26 in Calm   1 mph 92% 0.00 in 25 W/m2
08:34 40.5 °F 39.2 °F 30.26 in Calm     92% 0.00 in 32 W/m2
08:39 40.5 °F 39.2 °F 30.26 in Calm     92% 0.00 in 39 W/m2
08:44 40.5 °F 39.2 °F 30.26 in Calm     92% 0.00 in 44 W/m2
08:49 40.6 °F 39.3 °F 30.26 in Calm     92% 0.00 in 44 W/m2
08:54 40.8 °F 39.6 °F 30.27 in Calm     92% 0.00 in 46 W/m2
08:59 41.2 °F 39.9 °F 30.27 in Calm     92% 0.00 in 47 W/m2
09:04 41.6 °F 40.3 °F 30.27 in Calm     92% 0.00 in 51 W/m2
09:09 41.7 °F 40.5 °F 30.27 in Calm     92% 0.00 in 54 W/m2
09:14 41.9 °F 40.6 °F 30.27 in Calm     92% 0.00 in 60 W/m2
09:19 42.1 °F 40.8 °F 30.27 in Calm     92% 0.00 in 67 W/m2
09:24 42.1 °F 40.8 °F 30.27 in Calm     92% 0.00 in 69 W/m2
09:29 42.1 °F 40.8 °F 30.27 in Calm     92% 0.00 in 74 W/m2
09:33 42.3 °F 41.3 °F 30.27 in Calm     92.8% 0.00 in 74 W/m2
09:39 42.4 °F 41.5 °F 30.27 in Calm     93% 0.00 in 76 W/m2
09:44 42.4 °F 41.5 °F 30.27 in Calm     93% 0.00 in 79 W/m2
09:49 42.7 °F 41.5 °F 30.27 in Calm   1 mph 92.2% 0.00 in 81 W/m2
09:54 43.2 °F 42 °F 30.27 in Calm   1 mph 92.8% 0.00 in 79 W/m2
09:59 43.3 °F 42.2 °F 30.27 in Calm   1 mph 93% 0.00 in 77 W/m2
10:04 43.4 °F 42.3 °F 30.27 in Calm   1 mph 92.8% 0.00 in 90 W/m2
10:09 43.7 °F 42.5 °F 30.27 in Calm     92.6% 0.00 in 100 W/m2
10:14 44 °F 42.9 °F 30.27 in Calm     93% 0.00 in 104 W/m2
10:19 44.2 °F 43.2 °F 30.27 in Calm     93% 0.00 in 111 W/m2
10:24 44.4 °F 43.2 °F 30.27 in West 0.6 mph 2 mph 92% 0.00 in 120 W/m2
10:29 44.5 °F 43.4 °F 30.27 in Calm   1 mph 93% 0.00 in 123 W/m2
10:34 44.8 °F 43.7 °F 30.27 in Calm     93% 0.00 in 123 W/m2
10:39 44.9 °F 43.7 °F 30.27 in Calm     92.6% 0.00 in 125 W/m2
10:44 45 °F 43.7 °F 30.27 in Calm     92% 0.00 in 134 W/m2
10:49 45.1 °F 43.8 °F 30.27 in Calm     92% 0.00 in 141 W/m2
10:54 45.4 °F 44.2 °F 30.27 in Calm     92% 0.00 in 148 W/m2
10:59 45.7 °F 44.4 °F 30.27 in Calm     92% 0.00 in 149 W/m2
11:04 45.8 °F 44.5 °F 30.27 in Calm     92% 0.00 in 153 W/m2
11:09 46.1 °F 44.9 °F 30.27 in Calm     92% 0.00 in 162 W/m2
11:14 46.1 °F 44.9 °F 30.27 in West 0.4 mph 3 mph 92% 0.00 in 176 W/m2
11:19 46.2 °F 45 °F 30.27 in Calm   1 mph 92% 0.00 in 188 W/m2
11:24 46.4 °F 45.1 °F 30.27 in West 0.6 mph 2 mph 91.8% 0.00 in 188 W/m2
11:29 46.8 °F 45.2 °F 30.27 in Calm   1 mph 91% 0.00 in 186 W/m2
11:34 47.1 °F 45.5 °F 30.27 in Calm   1 mph 91% 0.00 in 192 W/m2
11:39 47.4 °F 45.8 °F 30.27 in Calm   1 mph 91% 0.00 in 188 W/m2
11:43 47.6 °F 45.7 °F 30.26 in Calm   1 mph 90.3% 0.00 in 188 W/m2
11:49 47.8 °F 45.8 °F 30.27 in Calm     90% 0.00 in 176 W/m2
11:54 48.3 °F 46.3 °F 30.26 in Calm     90% 0.00 in 171 W/m2
11:59 48.8 °F 46.6 °F 30.26 in Calm     89% 0.00 in 178 W/m2
12:04 49.1 °F 46.8 °F 30.26 in Calm     88.4% 0.00 in 183 W/m2
12:09 49.4 °F 46.7 °F 30.26 in Calm     87.6% 0.00 in 188 W/m2
12:14 49.6 °F 46.8 °F 30.26 in West 1.4 mph 3 mph 87% 0.00 in 183 W/m2
12:19 49.6 °F 46.5 °F 30.26 in West 0.2 mph 3 mph 85.8% 0.00 in 178 W/m2
12:24 49.8 °F 46.4 °F 30.26 in West 0.4 mph 3 mph 85% 0.00 in 171 W/m2
12:29 50 °F 46.5 °F 30.26 in Calm   1 mph 84.6% 0.00 in 167 W/m2
12:34 50.3 °F 46.5 °F 30.25 in Calm     84% 0.00 in 174 W/m2
12:39 50.5 °F 46.4 °F 30.25 in Calm     83% 0.00 in 176 W/m2
12:44 50.9 °F 46.7 °F 30.25 in Calm     82.8% 0.00 in 185 W/m2
12:48 51.2 °F 46.7 °F 30.25 in Calm     82% 0.00 in 188 W/m2
12:54 51.2 °F 46.6 °F 30.25 in West 0.4 mph 2 mph 81.4% 0.00 in 195 W/m2
12:59 51.1 °F 46.4 °F 30.25 in Calm     81% 0.00 in 204 W/m2
13:04 51.3 °F 46.3 °F 30.24 in Calm     80% 0.00 in 202 W/m2
13:09 51.5 °F 46.4 °F 30.24 in Calm     79.8% 0.00 in 192 W/m2
13:14 51.8 °F 46.4 °F 30.24 in West 0.6 mph 3 mph 79.2% 0.00 in 181 W/m2
13:19 51.6 °F 45.9 °F 30.24 in SSE 2 mph 5 mph 78.2% 0.00 in 174 W/m2
13:24 51.4 °F 45.7 °F 30.24 in SSE 0.9 mph 4 mph 78% 0.00 in 178 W/m2
13:29 51.4 °F 45.7 °F 30.24 in Calm   2 mph 78% 0.00 in 176 W/m2
13:34 51.6 °F 45.9 °F 30.24 in SSE 1 mph 4 mph 78% 0.00 in 167 W/m2
13:39 51.6 °F 45.9 °F 30.24 in SSE 0.2 mph 3 mph 78% 0.00 in 167 W/m2
13:44 51.6 °F 45.7 °F 30.24 in Calm   3 mph 77.4% 0.00 in 162 W/m2
13:49 51.8 °F 45.8 °F 30.24 in Calm   3 mph 77% 0.00 in 153 W/m2
13:54 52.2 °F 46 °F 30.24 in SSE 0.6 mph 3 mph 77.2% 0.00 in 151 W/m2
13:59 52.2 °F 46 °F 30.24 in SSE 1.2 mph 2 mph 77% 0.00 in 148 W/m2
14:04 52.3 °F 46.1 °F 30.24 in Calm   2 mph 77% 0.00 in 144 W/m2
14:09 52.2 °F 46.1 °F 30.23 in SSE 0.4 mph 2 mph 77% 0.00 in 137 W/m2
14:14 52.3 °F 46.2 °F 30.23 in SSE 1.2 mph 3 mph 77% 0.00 in 139 W/m2
14:19 52.3 °F 46 °F 30.23 in SSE 0.2 mph 3 mph 76.2% 0.00 in 141 W/m2
14:24 52.3 °F 45.9 °F 30.23 in Calm     76% 0.00 in 135 W/m2
14:29 52.4 °F 45.8 °F 30.23 in Calm     75.6% 0.00 in 127 W/m2
14:34 52.6 °F 45.8 °F 30.22 in Calm     75% 0.00 in 121 W/m2
14:39 52.7 °F 45.7 °F 30.22 in WSW 2.5 mph 4 mph 74.4% 0.00 in 114 W/m2
14:44 52.5 °F 45.2 °F 30.22 in West 2 mph 4 mph 73.6% 0.00 in 107 W/m2
14:49 52.3 °F 44.8 °F 30.22 in West 0.8 mph 3 mph 73% 0.00 in 102 W/m2
14:54 52.5 °F 45.1 °F 30.22 in West 0.8 mph 3 mph 73.6% 0.00 in 97 W/m2
14:59 52.5 °F 45.1 °F 30.22 in West 0.7 mph 3 mph 73.3% 0.00 in 95 W/m2
15:04 52.5 °F 45.3 °F 30.22 in West 0.4 mph 2 mph 74% 0.00 in 95 W/m2
15:09 52.5 °F 45.3 °F 30.22 in West 1 mph 3 mph 74% 0.00 in 100 W/m2
15:14 52.5 °F 45.3 °F 30.22 in West 0.2 mph 1 mph 74% 0.00 in 104 W/m2
15:19 52.6 °F 45.4 °F 30.22 in Calm     74% 0.00 in 102 W/m2
15:24 52.9 °F 45.9 °F 30.22 in Calm   1 mph 74.8% 0.00 in 98 W/m2
15:29 53.1 °F 46.2 °F 30.22 in West 0.8 mph 3 mph 75% 0.00 in 98 W/m2
15:34 53 °F 45.8 °F 30.22 in SSW 1.1 mph 5 mph 74.2% 0.00 in 95 W/m2
15:39 52.7 °F 45.7 °F 30.22 in SSW 0.9 mph 3 mph 74.4% 0.00 in 90 W/m2
15:44 52.5 °F 45.7 °F 30.21 in SSW 0.8 mph 3 mph 75% 0.00 in 86 W/m2
15:49 52.5 °F 45.7 °F 30.21 in SSW 0.8 mph 3 mph 75% 0.00 in 84 W/m2
15:54 52.5 °F 45.8 °F 30.21 in SSW 1.2 mph 2 mph 75.4% 0.00 in 83 W/m2
15:59 52.5 °F 46 °F 30.21 in SSW 0.5 mph 2 mph 76% 0.00 in 77 W/m2
16:04 52.5 °F 46 °F 30.21 in Calm     76% 0.00 in 69 W/m2
16:09 52.7 °F 46.2 °F 30.21 in Calm     76% 0.00 in 70 W/m2
16:14 52.9 °F 46.4 °F 30.20 in Calm     76% 0.00 in 70 W/m2
16:19 53 °F 46.5 °F 30.20 in Calm     76% 0.00 in 54 W/m2
16:24 53.1 °F 46.6 °F 30.20 in Calm     76% 0.00 in 42 W/m2
16:29 53.1 °F 46.6 °F 30.20 in Calm     76% 0.00 in 44 W/m2
16:34 52.9 °F 46.4 °F 30.20 in Calm     76% 0.00 in 42 W/m2
16:39 52.9 °F 46.7 °F 30.20 in Calm     76.8% 0.00 in 33 W/m2
16:44 52.7 °F 46.6 °F 30.20 in Calm     77% 0.00 in 32 W/m2
16:49 52.5 °F 46.3 °F 30.20 in Calm     76.8% 0.00 in 28 W/m2
16:54 52.4 °F 45.9 °F 30.20 in Calm     76% 0.00 in 26 W/m2
16:59 52.5 °F 46.4 °F 30.20 in Calm     77% 0.00 in 23 W/m2
17:04 52.8 °F 46.9 °F 30.20 in Calm     77.6% 0.00 in 21 W/m2
17:09 52.9 °F 47.1 °F 30.20 in Calm     78% 0.00 in 21 W/m2
17:14 52.9 °F 47.4 °F 30.20 in Calm     78.8% 0.00 in 12 W/m2
17:19 52.7 °F 47.3 °F 30.20 in Calm     79% 0.00 in 12 W/m2
17:24 52.5 °F 47.1 °F 30.20 in Calm     79% 0.00 in 12 W/m2
17:29 52.4 °F 47.1 °F 30.20 in Calm     79.2% 0.00 in 9 W/m2
17:34 52.3 °F 47.3 °F 30.19 in Calm     80% 0.00 in 9 W/m2
17:39 52.2 °F 47.2 °F 30.19 in Calm     80% 0.00 in 9 W/m2
17:44 52.1 °F 47 °F 30.19 in SSW 0.2 mph 1 mph 80% 0.00 in 7 W/m2
17:49 51.9 °F 46.9 °F 30.20 in SSW 0.6 mph 4 mph 80% 0.00 in 0 W/m2
17:54 51.6 °F 46.7 °F 30.20 in Calm   4 mph 80.2% 0.00 in 0 W/m2
17:59 51.7 °F 47 °F 30.20 in Calm   1 mph 81% 0.00 in 0 W/m2
18:04 51.6 °F 46.9 °F 30.20 in Calm     81% 0.00 in 0 W/m2
18:09 51.6 °F 46.9 °F 30.20 in SSW 0.2 mph 1 mph 81% 0.00 in 0 W/m2
18:14 51.6 °F 46.9 °F 30.20 in Calm   1 mph 81% 0.00 in 0 W/m2
18:19 51.4 °F 46.8 °F 30.20 in Calm   1 mph 81% 0.00 in 0 W/m2
18:24 51.4 °F 46.9 °F 30.20 in Calm     81.6% 0.00 in 0 W/m2
18:29 51.4 °F 46.9 °F 30.20 in Calm     82% 0.00 in 0 W/m2
18:34 51.4 °F 46.9 °F 30.20 in Calm     82% 0.00 in 0 W/m2
18:39 51.3 °F 46.8 °F 30.20 in SSW 0.4 mph 3 mph 82% 0.00 in 0 W/m2
18:44 51.3 °F 46.8 °F 30.21 in Calm     82% 0.00 in 0 W/m2
18:49 51.3 °F 47 °F 30.21 in Calm     82.6% 0.00 in 0 W/m2
18:54 51.3 °F 47.1 °F 30.20 in Calm     83% 0.00 in 0 W/m2
18:59 51.3 °F 47.1 °F 30.20 in Calm     83% 0.00 in 0 W/m2
19:04 51.1 °F 46.9 °F 30.20 in Calm     83% 0.00 in 0 W/m2
19:09 51.1 °F 46.9 °F 30.20 in Calm     83% 0.00 in 0 W/m2
19:14 51.1 °F 46.9 °F 30.21 in Calm     83% 0.00 in 0 W/m2
19:19 51 °F 47 °F 30.21 in Calm     83.4% 0.00 in 0 W/m2
19:24 50.9 °F 47.1 °F 30.21 in Calm     84% 0.00 in 0 W/m2
19:29 50.8 °F 47 °F 30.21 in Calm     84% 0.00 in 0 W/m2
19:34 50.7 °F 46.9 °F 30.21 in Calm     84% 0.00 in 0 W/m2
19:39 50.7 °F 46.9 °F 30.21 in Calm     84% 0.00 in 0 W/m2
19:44 50.6 °F 47.1 °F 30.21 in Calm     84.8% 0.00 in 0 W/m2
19:49 50.5 °F 47.1 °F 30.21 in Calm     85% 0.00 in 0 W/m2
19:54 50.5 °F 47.1 °F 30.21 in Calm     85% 0.00 in 0 W/m2
19:59 50.4 °F 47 °F 30.21 in SSW 0.2 mph 2 mph 85% 0.00 in 0 W/m2
20:04 50.4 °F 46.9 °F 30.20 in Calm   2 mph 85% 0.00 in 0 W/m2
20:09 50.4 °F 47.3 °F 30.20 in Calm     86% 0.00 in 0 W/m2
20:14 50.4 °F 47.3 °F 30.20 in Calm     86% 0.00 in 0 W/m2
20:19 50.3 °F 47.3 °F 30.20 in Calm     86% 0.00 in 0 W/m2
20:24 50.2 °F 47.1 °F 30.20 in Calm     86% 0.00 in 0 W/m2
20:29 50.2 °F 47.1 °F 30.20 in Calm     86% 0.00 in 0 W/m2
20:34 50.2 °F 47.1 °F 30.20 in Calm     86% 0.00 in 0 W/m2
20:39 50.2 °F 47.1 °F 30.20 in Calm     86% 0.00 in 0 W/m2
20:44 50.2 °F 47.2 °F 30.19 in Calm     86.6% 0.00 in 0 W/m2
20:49 50.2 °F 47.3 °F 30.19 in Calm     86.8% 0.00 in 0 W/m2
20:54 50.2 °F 47.3 °F 30.19 in Calm     86.8% 0.00 in 0 W/m2
20:59 50.2 °F 47.3 °F 30.19 in Calm     87% 0.00 in 0 W/m2
21:04 50 °F 47.1 °F 30.19 in Calm     87% 0.00 in 0 W/m2
21:09 50 °F 47.1 °F 30.19 in Calm     87% 0.00 in 0 W/m2
21:14 49.8 °F 46.9 °F 30.19 in Calm     87% 0.00 in 0 W/m2
21:19 49.8 °F 46.9 °F 30.19 in Calm     87% 0.00 in 0 W/m2
21:24 49.8 °F 46.9 °F 30.19 in Calm     87% 0.00 in 0 W/m2
21:29 49.8 °F 47.3 °F 30.19 in Calm     88% 0.00 in 0 W/m2
21:34 49.8 °F 47.3 °F 30.19 in Calm     88% 0.00 in 0 W/m2
21:39 49.8 °F 47.3 °F 30.18 in Calm     88% 0.00 in 0 W/m2
21:44 49.6 °F 47.1 °F 30.18 in Calm     88% 0.00 in 0 W/m2
21:49 49.6 °F 47.1 °F 30.18 in Calm     88% 0.00 in 0 W/m2
21:54 49.6 °F 47.1 °F 30.18 in Calm     88% 0.00 in 0 W/m2
21:59 49.6 °F 47.1 °F 30.18 in Calm     88% 0.00 in 0 W/m2
22:04 49.6 °F 47.1 °F 30.18 in Calm     88% 0.00 in 0 W/m2
22:09 49.6 °F 47.1 °F 30.18 in Calm     88% 0.00 in 0 W/m2
22:14 49.6 °F 47.1 °F 30.18 in Calm     88% 0.00 in 0 W/m2
22:19 49.6 °F 47.1 °F 30.18 in Calm     88% 0.00 in 0 W/m2
22:24 49.6 °F 47.1 °F 30.18 in Calm     88% 0.00 in 0 W/m2
22:29 49.6 °F 47.1 °F 30.18 in Calm     88% 0.00 in 0 W/m2
22:34 49.6 °F 47.1 °F 30.18 in Calm     88% 0.00 in 0 W/m2
22:39 49.6 °F 47.1 °F 30.18 in Calm     88% 0.00 in 0 W/m2
22:44 49.5 °F 46.9 °F 30.18 in Calm     88% 0.00 in 0 W/m2
22:49 49.5 °F 46.9 °F 30.18 in Calm     88% 0.00 in 0 W/m2
22:54 49.4 °F 47 °F 30.18 in Calm     88.4% 0.00 in 0 W/m2
22:59 49.3 °F 46.9 °F 30.18 in SSE 1.8 mph 5 mph 88.2% 0.00 in 0 W/m2
23:04 49.1 °F 46.6 °F 30.18 in SSE 0.5 mph 4 mph 88% 0.00 in 0 W/m2
23:09 49.1 °F 46.6 °F 30.18 in SSE 0.7 mph 3 mph 88% 0.00 in 0 W/m2
23:14 49.2 °F 46.7 °F 30.18 in SE 1.7 mph 4 mph 88% 0.00 in 0 W/m2
23:19 49.3 °F 46.8 °F 30.17 in SE 2.4 mph 4 mph 88% 0.00 in 0 W/m2
23:24 49.3 °F 46.8 °F 30.17 in SE 2.7 mph 4 mph 88% 0.00 in 0 W/m2
23:29 49.5 °F 46.8 °F 30.17 in SE 1.6 mph 4 mph 87.6% 0.00 in 0 W/m2
23:34 49.5 °F 46.6 °F 30.17 in SE 1.3 mph 4 mph 87% 0.00 in 0 W/m2
23:39 49.6 °F 46.8 °F 30.16 in SE 1.8 mph 3 mph 87% 0.00 in 0 W/m2
23:44 49.6 °F 46.7 °F 30.16 in ESE 1.3 mph 5 mph 87% 0.00 in 0 W/m2
23:49 49.5 °F 46.4 °F 30.16 in ESE 1.2 mph 4 mph 86.2% 0.00 in 0 W/m2
23:54 49.5 °F 46.4 °F 30.16 in Calm   2 mph 86% 0.00 in 0 W/m2
23:59 49.4 °F 46.3 °F 30.16 in Calm   1 mph 86% 0.00 in 0 W/m2
Bath Spa Weather
Compliments of Weather Underground - 2 mb